Time;durP1;ratioP1;P1;durP2;ratioP2;P2;SDS_P1;SDS_P2;PMS_P1;PMS_P2;Temp;Humidity;BMP_temperature;BMP_pressure;BME280_temperature;BME280_humidity;BME280_pressure;Samples;Min_cycle;Max_cycle;Signal;HPM_P1;HPM_P2
2020/12/27 00:00:21;;;;;;;7.87;5.43;;;;;;;6.45;100.00;96510.63;5071340;27;20224;-92
2020/12/27 00:02:48;;;;;;;4.33;3.93;;;;;;;6.80;100.00;96507.69;5070543;28;20208;-93
2020/12/27 00:05:16;;;;;;;5.53;4.37;;;;;;;6.50;100.00;96505.84;5070636;27;20197;-93
2020/12/27 00:07:44;;;;;;;4.47;4.07;;;;;;;6.44;100.00;96503.72;5070552;27;20193;-93
2020/12/27 00:10:14;;;;;;;6.83;3.93;;;;;;;6.40;100.00;96510.16;5070528;27;20292;-93
2020/12/27 00:12:41;;;;;;;5.77;4.63;;;;;;;6.35;100.00;96521.00;5070418;28;20274;-92
2020/12/27 00:15:07;;;;;;;4.80;4.23;;;;;;;6.36;100.00;96530.47;5070537;27;20284;-94
2020/12/27 00:17:34;;;;;;;4.53;3.63;;;;;;;6.38;100.00;96528.56;5070254;27;20220;-92
2020/12/27 00:20:04;;;;;;;5.27;3.90;;;;;;;6.37;100.00;96532.16;5070363;28;20197;-93
2020/12/27 00:22:31;;;;;;;4.53;4.13;;;;;;;6.37;100.00;96526.06;5070334;27;20197;-92
2020/12/27 00:24:57;;;;;;;4.07;3.50;;;;;;;6.35;100.00;96534.03;5070725;27;20228;-94
2020/12/27 00:27:25;;;;;;;3.63;3.33;;;;;;;6.35;100.00;96538.44;5070129;27;20665;-94
2020/12/27 00:29:53;;;;;;;4.33;3.93;;;;;;;6.35;100.00;96538.44;5070353;27;20200;-93
2020/12/27 00:32:19;;;;;;;5.27;3.80;;;;;;;6.45;100.00;96535.91;5069778;27;20221;-92
2020/12/27 00:34:46;;;;;;;5.07;4.50;;;;;;;6.40;100.00;96537.09;5070106;27;20292;-93
2020/12/27 00:37:13;;;;;;;4.27;3.33;;;;;;;6.46;100.00;96532.34;5069949;27;20283;-92
2020/12/27 00:39:40;;;;;;;8.93;5.47;;;;;;;6.40;100.00;96528.44;5069853;28;20197;-94
2020/12/27 00:42:07;;;;;;;4.87;4.07;;;;;;;6.43;100.00;96533.41;5071476;27;20570;-92
2020/12/27 00:44:34;;;;;;;6.30;4.53;;;;;;;6.43;100.00;96542.06;5070079;27;20201;-92
2020/12/27 00:47:01;;;;;;;9.63;3.80;;;;;;;6.41;100.00;96548.38;5069933;27;20292;-93
2020/12/27 00:49:28;;;;;;;6.23;3.97;;;;;;;6.42;100.00;96548.25;5069697;27;20281;-91
2020/12/27 00:51:55;;;;;;;5.57;4.07;;;;;;;6.42;100.00;96550.03;5069767;27;20245;-92
2020/12/27 00:54:22;;;;;;;4.93;4.43;;;;;;;6.43;100.00;96547.28;5069846;27;20204;-92
2020/12/27 00:56:52;;;;;;;6.13;4.67;;;;;;;6.57;100.00;96545.31;5070020;27;20205;-92
2020/12/27 00:59:20;;;;;;;7.77;4.97;;;;;;;6.46;100.00;96545.38;5070107;28;20610;-92
2020/12/27 01:01:53;;;;;;;9.10;6.13;;;;;;;6.55;100.00;96552.47;5069780;27;20201;-91
2020/12/27 01:04:20;;;;;;;9.53;5.50;;;;;;;6.40;100.00;96554.53;5070141;28;20581;-92
2020/12/27 01:06:47;;;;;;;6.63;5.10;;;;;;;6.31;100.00;96550.91;5069992;27;20229;-91
2020/12/27 01:09:14;;;;;;;6.33;5.20;;;;;;;6.33;100.00;96550.78;5069774;27;20684;-93
2020/12/27 01:11:41;;;;;;;5.03;4.03;;;;;;;6.28;100.00;96555.56;5069383;27;20231;-92
2020/12/27 01:14:08;;;;;;;7.83;4.73;;;;;;;6.35;100.00;96559.31;5069791;28;20282;-93
2020/12/27 01:16:35;;;;;;;9.37;4.87;;;;;;;6.39;100.00;96555.50;5069634;27;20213;-92
2020/12/27 01:19:03;;;;;;;9.63;6.73;;;;;;;6.35;100.00;96552.31;5069357;27;20193;-92
2020/12/27 01:21:31;;;;;;;9.57;5.27;;;;;;;6.35;100.00;96560.16;5069390;27;20590;-92
2020/12/27 01:23:59;;;;;;;5.93;3.80;;;;;;;6.47;100.00;96552.25;5069550;27;20193;-91
2020/12/27 01:26:32;;;;;;;9.77;6.80;;;;;;;6.49;100.00;96553.81;5069537;27;20190;-92
2020/12/27 01:28:59;;;;;;;6.60;5.63;;;;;;;6.36;100.00;96548.75;5069796;28;20186;-92
2020/12/27 01:31:27;;;;;;;9.93;6.50;;;;;;;6.37;100.00;96550.44;5069462;27;20221;-92
2020/12/27 01:33:53;;;;;;;10.00;6.40;;;;;;;6.35;100.00;96541.06;5069453;27;20205;-92
2020/12/27 01:36:29;;;;;;;9.27;6.77;;;;;;;6.35;100.00;96531.44;5069712;27;20233;-93
2020/12/27 01:38:57;;;;;;;12.73;6.90;;;;;;;6.34;100.00;96532.41;5071935;27;20211;-90
2020/12/27 01:41:24;;;;;;;7.60;5.57;;;;;;;6.36;100.00;96530.47;5072408;27;20246;-91
2020/12/27 01:44:01;;;;;;;6.93;5.43;;;;;;;6.38;100.00;96531.19;5072561;28;20203;-91
2020/12/27 01:46:29;;;;;;;7.77;4.43;;;;;;;6.26;100.00;96520.91;5072544;27;20200;-92
2020/12/27 01:48:56;;;;;;;6.77;5.07;;;;;;;6.28;100.00;96517.22;5072788;27;20193;-92
2020/12/27 01:51:23;;;;;;;9.77;5.63;;;;;;;6.19;100.00;96523.19;5072389;27;20309;-92
2020/12/27 01:53:51;;;;;;;4.83;4.07;;;;;;;6.19;100.00;96531.03;5073234;27;20189;-91
2020/12/27 01:56:21;;;;;;;5.97;3.83;;;;;;;6.37;100.00;96526.06;5072819;27;20240;-92
2020/12/27 01:58:54;;;;;;;6.33;3.50;;;;;;;6.26;100.00;96529.56;5072435;28;20198;-92
2020/12/27 02:01:21;;;;;;;7.17;4.13;;;;;;;6.19;100.00;96529.22;5072864;28;20777;-91
2020/12/27 02:03:50;;;;;;;10.50;4.60;;;;;;;6.16;100.00;96536.50;5072948;28;20193;-92
2020/12/27 02:06:17;;;;;;;8.37;5.33;;;;;;;6.16;100.00;96531.28;5072483;28;20209;-92
2020/12/27 02:08:45;;;;;;;6.77;3.70;;;;;;;6.46;100.00;96533.16;5072542;27;20244;-92
2020/12/27 02:11:13;;;;;;;10.33;8.53;;;;;;;6.28;100.00;96529.47;5072222;27;20269;-91
2020/12/27 02:13:50;;;;;;;9.37;6.10;;;;;;;6.33;100.00;96530.72;5072258;27;20189;-92
2020/12/27 02:16:20;;;;;;;6.27;5.03;;;;;;;6.21;100.00;96526.53;5072545;28;20629;-92
2020/12/27 02:18:47;;;;;;;17.97;10.47;;;;;;;6.19;100.00;96531.03;5072400;27;20717;-92
2020/12/27 02:21:15;;;;;;;14.77;9.13;;;;;;;6.24;100.00;96536.72;5072338;27;20684;-91
2020/12/27 02:23:42;;;;;;;7.20;5.40;;;;;;;6.35;100.00;96539.25;5072528;27;20193;-92
2020/12/27 02:26:10;;;;;;;14.50;9.40;;;;;;;6.21;100.00;96534.34;5072060;27;20699;-92
2020/12/27 02:28:37;;;;;;;14.93;7.77;;;;;;;6.35;100.00;96536.66;5072163;27;20224;-92
2020/12/27 02:31:05;;;;;;;15.27;8.73;;;;;;;6.43;100.00;96534.22;5072097;28;20221;-92
2020/12/27 02:33:31;;;;;;;17.97;9.00;;;;;;;6.36;100.00;96553.16;5072268;27;20193;-91
2020/12/27 02:35:58;;;;;;;16.00;9.87;;;;;;;6.46;100.00;96551.44;5072095;27;20637;-90
2020/12/27 02:38:25;;;;;;;15.53;12.17;;;;;;;6.45;100.00;96554.19;5072380;27;20193;-90
2020/12/27 02:40:52;;;;;;;27.17;19.17;;;;;;;6.31;100.00;96553.53;5071835;27;20229;-91
2020/12/27 02:43:20;;;;;;;19.57;16.60;;;;;;;6.30;100.00;96545.81;5071758;27;20197;-90
2020/12/27 02:45:48;;;;;;;18.20;16.23;;;;;;;6.17;100.00;96540.78;5071699;27;20197;-91
2020/12/27 02:48:16;;;;;;;23.80;20.13;;;;;;;6.27;100.00;96543.44;5071707;27;20642;-93
2020/12/27 02:50:43;;;;;;;17.77;11.80;;;;;;;6.24;100.00;96554.16;5071505;28;20241;-92
2020/12/27 02:53:10;;;;;;;14.93;10.97;;;;;;;6.16;100.00;96554.75;5071707;27;20228;-91
2020/12/27 02:55:37;;;;;;;11.53;9.27;;;;;;;6.06;100.00;96561.66;5071900;27;20227;-92
2020/12/27 02:58:03;;;;;;;16.07;11.17;;;;;;;5.96;100.00;96572.03;5071609;27;20249;-91
2020/12/27 03:00:33;;;;;;;10.73;9.57;;;;;;;6.04;100.00;96560.97;5071567;27;20233;-92
2020/12/27 03:03:00;;;;;;;16.37;12.37;;;;;;;6.06;100.00;96572.09;5071419;27;20193;-90
2020/12/27 03:05:27;;;;;;;17.53;12.07;;;;;;;6.02;100.00;96579.34;5071395;27;20193;-91
2020/12/27 03:07:54;;;;;;;18.43;13.03;;;;;;;5.96;100.00;96577.25;5071563;27;20185;-92
2020/12/27 03:10:20;;;;;;;14.53;11.63;;;;;;;5.99;100.00;96582.19;5071641;27;20239;-91
2020/12/27 03:12:47;;;;;;;14.50;12.27;;;;;;;5.90;100.00;96573.31;5071504;27;20225;-91
2020/12/27 03:15:14;;;;;;;14.80;11.30;;;;;;;5.84;100.00;96584.22;5071129;27;20236;-92
2020/12/27 03:17:42;;;;;;;10.87;9.57;;;;;;;5.98;100.00;96584.94;5071138;28;20196;-91
2020/12/27 03:20:16;;;;;;;11.43;8.97;;;;;;;5.86;100.00;96587.56;5071455;27;20208;-92
2020/12/27 03:22:43;;;;;;;13.37;9.03;;;;;;;5.79;100.00;96594.22;5071305;28;20237;-91
2020/12/27 03:25:10;;;;;;;11.40;9.03;;;;;;;5.76;100.00;96607.50;5071184;27;20561;-91
2020/12/27 03:27:37;;;;;;;10.10;7.37;;;;;;;5.74;100.00;96606.78;5071452;27;20280;-91
2020/12/27 03:30:05;;;;;;;10.23;9.17;;;;;;;5.73;100.00;96610.34;5071194;27;20194;-91
2020/12/27 03:32:32;;;;;;;14.90;11.63;;;;;;;5.75;100.00;96595.41;5071299;27;20221;-92
2020/12/27 03:35:00;;;;;;;28.67;21.23;;;;;;;5.76;100.00;96591.84;5071433;27;20205;-92
2020/12/27 03:37:27;;;;;;;11.53;10.33;;;;;;;5.76;100.00;96591.84;5071410;27;20196;-92
2020/12/27 03:39:53;;;;;;;8.70;7.80;;;;;;;5.71;100.00;96587.00;5070909;27;20193;-92
2020/12/27 03:42:23;;;;;;;10.80;8.47;;;;;;;5.83;100.00;96590.41;5071248;28;20242;-91
2020/12/27 03:44:50;;;;;;;7.53;6.80;;;;;;;5.87;100.00;96584.00;5071409;27;20685;-90
2020/12/27 03:47:18;;;;;;;5.83;5.23;;;;;;;5.89;100.00;96594.31;5071584;27;20189;-90
2020/12/27 03:49:44;;;;;;;5.97;5.37;;;;;;;5.94;100.00;96593.00;5070637;27;20196;-92
2020/12/27 03:52:12;;;;;;;5.73;3.97;;;;;;;5.98;100.00;96585.78;5070449;27;20308;-91
2020/12/27 03:54:39;;;;;;;26.20;19.17;;;;;;;6.04;100.00;96585.28;5070919;27;20577;-90
2020/12/27 03:57:06;;;;;;;6.87;6.17;;;;;;;6.07;100.00;96582.44;5070571;27;20208;-91
2020/12/27 03:59:33;;;;;;;3.50;3.20;;;;;;;6.03;100.00;96588.03;5070414;27;20197;-91
2020/12/27 04:02:00;;;;;;;13.13;10.57;;;;;;;6.00;100.00;96591.72;5070182;27;20193;-91
2020/12/27 04:04:27;;;;;;;5.40;4.50;;;;;;;6.04;100.00;96600.13;5070522;27;20673;-91
2020/12/27 04:06:54;;;;;;;7.63;6.83;;;;;;;6.08;100.00;96593.69;5070667;27;20193;-91
2020/12/27 04:09:22;;;;;;;4.07;3.23;;;;;;;6.15;100.00;96593.09;5070518;27;20193;-91
2020/12/27 04:11:48;;;;;;;6.47;4.67;;;;;;;6.17;100.00;96595.59;5070069;27;20221;-90
2020/12/27 04:14:15;;;;;;;5.13;4.63;;;;;;;6.20;100.00;96592.72;5070748;27;20650;-91
2020/12/27 04:16:42;;;;;;;5.80;5.30;;;;;;;6.04;100.00;96595.72;5070161;27;20232;-91
2020/12/27 04:19:09;;;;;;;5.93;4.80;;;;;;;6.12;100.00;96590.72;5070698;27;20253;-90
2020/12/27 04:21:36;;;;;;;6.87;5.90;;;;;;;6.11;100.00;96583.84;5070320;27;20251;-92
2020/12/27 04:24:02;;;;;;;6.23;5.27;;;;;;;6.14;100.00;96593.22;5070351;27;20231;-90
2020/12/27 04:26:35;;;;;;;1.80;1.70;;;;;;;6.21;100.00;96591.78;5070386;28;20192;-90
2020/12/27 04:29:01;;;;;;;2.80;2.60;;;;;;;6.19;100.00;96585.84;5070408;27;20269;-91
2020/12/27 04:31:28;;;;;;;2.37;2.13;;;;;;;6.10;100.00;96581.38;5070100;27;20285;-91
2020/12/27 04:33:56;;;;;;;2.10;1.90;;;;;;;6.17;100.00;96593.81;5070147;27;20204;-90
2020/12/27 04:36:24;;;;;;;1.77;1.67;;;;;;;6.12;100.00;96589.88;5070308;27;20204;-91
2020/12/27 04:38:51;;;;;;;2.13;2.00;;;;;;;6.17;100.00;96606.03;5070170;27;20628;-90
2020/12/27 04:41:19;;;;;;;2.33;2.13;;;;;;;6.17;100.00;96588.56;5069760;27;20236;-91
2020/12/27 04:43:49;;;;;;;6.47;4.40;;;;;;;6.12;100.00;96590.72;5069848;27;20208;-91
2020/12/27 04:46:16;;;;;;;5.90;4.03;;;;;;;6.17;100.00;96585.97;5069998;27;20272;-91
2020/12/27 04:48:45;;;;;;;3.77;2.50;;;;;;;6.08;100.00;96596.31;5070185;27;20691;-89
2020/12/27 04:51:14;;;;;;;3.40;2.90;;;;;;;6.10;100.00;96607.47;5069647;27;20224;-90
2020/12/27 04:53:41;;;;;;;1.50;1.30;;;;;;;6.13;100.00;96601.97;5069911;27;20192;-90
2020/12/27 04:56:08;;;;;;;2.10;1.80;;;;;;;6.13;100.00;96591.53;5069983;27;20289;-90
2020/12/27 04:58:35;;;;;;;3.30;2.90;;;;;;;6.01;100.00;96579.50;5070279;27;20205;-90
2020/12/27 05:01:07;;;;;;;31.90;20.63;;;;;;;6.02;100.00;96571.53;5069907;27;20650;-91
2020/12/27 05:03:34;;;;;;;13.70;11.63;;;;;;;5.98;100.00;96590.16;5069707;28;20219;-90
2020/12/27 05:06:01;;;;;;;5.47;4.80;;;;;;;6.06;100.00;96601.66;5069453;27;20235;-90
2020/12/27 05:08:28;;;;;;;5.97;4.03;;;;;;;6.03;100.00;96594.09;5069860;27;20229;-91
2020/12/27 05:10:55;;;;;;;5.47;4.60;;;;;;;6.06;100.00;96588.63;5069499;27;20681;-90
2020/12/27 05:13:22;;;;;;;4.80;3.87;;;;;;;6.04;100.00;96579.25;5071939;27;20629;-91
2020/12/27 05:15:49;;;;;;;3.33;3.13;;;;;;;6.03;100.00;96588.03;5073206;27;20198;-91
2020/12/27 05:18:16;;;;;;;3.47;2.57;;;;;;;5.97;100.00;96589.34;5073168;27;20222;-91
2020/12/27 05:20:43;;;;;;;3.03;2.73;;;;;;;5.87;100.00;96591.00;5073277;27;20591;-91
2020/12/27 05:23:10;;;;;;;2.87;2.67;;;;;;;5.98;100.00;96588.38;5073058;27;20229;-91
2020/12/27 05:25:39;;;;;;;3.00;2.80;;;;;;;5.97;100.00;96583.31;5072677;28;20669;-91
2020/12/27 05:28:08;;;;;;;3.07;2.87;;;;;;;6.03;100.00;96588.03;5073279;27;20197;-90
2020/12/27 05:30:35;;;;;;;2.87;2.67;;;;;;;5.95;100.00;96586.00;5073338;28;20277;-89
2020/12/27 05:33:12;;;;;;;3.43;3.13;;;;;;;6.02;100.00;96591.56;5072708;27;20224;-91
2020/12/27 05:35:40;;;;;;;8.30;7.50;;;;;;;5.93;100.00;96593.16;5072700;28;20220;-89
2020/12/27 05:38:08;;;;;;;8.03;6.83;;;;;;;5.95;100.00;96601.66;5072906;27;20257;-90
2020/12/27 05:40:37;;;;;;;3.27;2.97;;;;;;;5.85;100.00;96588.47;5072374;27;20221;-90
2020/12/27 05:43:17;;;;;;;3.10;2.80;;;;;;;5.88;100.00;96587.41;5072579;27;20246;-90
2020/12/27 05:45:45;;;;;;;5.53;5.03;;;;;;;5.87;100.00;96583.16;5072894;28;20268;-91
2020/12/27 05:48:12;;;;;;;3.10;2.80;;;;;;;5.84;100.00;96576.41;5072814;28;20199;-91
2020/12/27 05:50:43;;;;;;;3.87;2.67;;;;;;;5.82;100.00;96578.31;5072780;27;20211;-90
2020/12/27 05:53:17;;;;;;;2.67;2.47;;;;;;;5.87;100.00;96581.38;5072428;28;20201;-90
2020/12/27 05:55:48;;;;;;;4.20;3.80;;;;;;;5.95;100.00;96591.22;5072486;28;20201;-89
2020/12/27 05:58:20;;;;;;;5.80;5.30;;;;;;;5.92;100.00;96597.53;5072459;27;20193;-90
2020/12/27 06:00:52;;;;;;;7.13;5.33;;;;;;;5.89;100.00;96583.88;5072371;27;20333;-89
2020/12/27 06:03:23;;;;;;;2.93;2.73;;;;;;;5.89;100.00;96589.94;5072331;27;20221;-90
2020/12/27 06:06:35;;;;;;;1.20;1.20;;;;;;;5.78;100.00;96604.75;5072555;27;20201;-92
2020/12/27 06:09:15;;;;;;;1.67;1.57;;;;;;;5.85;100.00;96609.34;5072672;27;20200;-91
2020/12/27 06:11:52;;;;;;;1.07;1.07;;;;;;;5.74;100.00;96609.38;5071525;28;20221;-90
2020/12/27 06:14:40;;;;;;;0.90;0.90;;;;;;;5.67;100.00;96614.25;5072226;28;20189;-90
2020/12/27 06:17:12;;;;;;;1.20;1.17;;;;;;;5.59;100.00;96615.81;5073573;28;20572;-90
2020/12/27 06:19:59;;;;;;;1.37;1.27;;;;;;;5.53;100.00;96614.50;5072870;27;20657;-91
2020/12/27 06:22:29;;;;;;;15.93;13.73;;;;;;;5.47;100.00;96615.81;5072539;28;20665;-90
2020/12/27 06:25:02;;;;;;;35.47;25.80;;;;;;;5.55;100.00;96620.44;5072344;28;20209;-90
2020/12/27 06:27:33;;;;;;;9.60;8.70;;;;;;;5.56;100.00;96618.63;5072458;28;20194;-88
2020/12/27 06:33:11;;;;;;;2.50;2.30;;;;;;;5.65;100.00;96603.13;5074751;28;20696;-89
2020/12/27 06:35:39;;;;;;;2.73;2.53;;;;;;;5.58;100.00;96575.88;5073126;28;20228;-88
2020/12/27 06:38:20;;;;;;;6.67;4.83;;;;;;;5.60;100.00;96549.66;5072049;27;20193;-88
2020/12/27 06:40:50;;;;;;;4.63;2.67;;;;;;;5.58;100.00;96562.00;5070640;28;20243;-88
2020/12/27 06:43:18;;;;;;;2.17;2.00;;;;;;;5.54;100.00;96571.00;5072511;28;20250;-88
2020/12/27 06:45:45;;;;;;;4.13;3.23;;;;;;;5.59;100.00;96589.72;5073687;28;20288;-89
2020/12/27 06:48:34;;;;;;;8.00;6.67;;;;;;;5.62;100.00;96605.13;5077306;28;20197;-88
2020/12/27 06:51:01;;;;;;;4.50;3.67;;;;;;;5.54;100.00;96626.56;5072521;28;20190;-90
2020/12/27 06:53:46;;;;;;;7.73;6.23;;;;;;;5.59;100.00;96634.88;5072644;28;20248;-86
2020/12/27 06:56:14;;;;;;;4.93;4.30;;;;;;;5.64;100.00;96645.75;5071923;28;20645;-87
2020/12/27 06:58:42;;;;;;;4.20;3.77;;;;;;;5.56;100.00;96637.72;5071113;28;20232;-86
2020/12/27 07:01:12;;;;;;;4.87;4.23;;;;;;;5.54;100.00;96644.00;5071359;28;20212;-86
2020/12/27 07:03:40;;;;;;;9.03;6.40;;;;;;;5.60;100.00;96633.09;5071302;28;20273;-88
2020/12/27 07:06:22;;;;;;;5.97;5.07;;;;;;;5.52;100.00;96602.41;5060370;27;20225;-87
2020/12/27 07:08:52;;;;;;;4.03;3.63;;;;;;;5.52;100.00;96591.16;5069561;28;20308;-86
2020/12/27 07:11:21;;;;;;;9.70;8.70;;;;;;;5.49;100.00;96597.44;5069914;28;20208;-86
2020/12/27 07:13:49;;;;;;;3.80;3.47;;;;;;;5.58;100.00;96601.13;5070675;28;20201;-87
2020/12/27 07:16:17;;;;;;;5.93;4.57;;;;;;;5.60;100.00;96614.84;5070503;28;20206;-86
2020/12/27 07:18:47;;;;;;;1.93;1.83;;;;;;;5.53;100.00;96624.09;5070346;28;20284;-87
2020/12/27 07:21:17;;;;;;;2.03;1.93;;;;;;;5.55;100.00;96611.78;5070043;28;20628;-89
2020/12/27 07:24:19;;;;;;;1.60;1.50;;;;;;;5.54;100.00;96595.28;5070807;28;20189;-87
2020/12/27 07:26:47;;;;;;;4.67;4.27;;;;;;;5.56;100.00;96619.47;5069830;28;20180;-87
2020/12/27 07:29:17;;;;;;;3.03;2.73;;;;;;;5.57;100.00;96610.69;5069646;28;20193;-87
2020/12/27 07:31:45;;;;;;;3.97;3.57;;;;;;;5.59;100.00;96608.81;5070003;28;20681;-88
2020/12/27 07:34:14;;;;;;;2.50;2.30;;;;;;;5.56;100.00;96603.81;5070163;27;20261;-89
2020/12/27 07:36:41;;;;;;;2.03;1.93;;;;;;;5.57;100.00;96600.25;5069494;28;20201;-89
2020/12/27 07:39:10;;;;;;;2.50;2.30;;;;;;;5.62;100.00;96605.13;5070300;27;20198;-88
2020/12/27 07:41:40;;;;;;;2.20;1.93;;;;;;;5.63;100.00;96610.22;5069821;28;20243;-89
2020/12/27 07:44:12;;;;;;;1.50;1.40;;;;;;;5.60;100.00;96610.44;5070319;27;20730;-89
2020/12/27 07:46:39;;;;;;;1.90;1.80;;;;;;;5.65;100.00;96612.72;5071007;28;20268;-90
2020/12/27 07:49:09;;;;;;;1.90;1.80;;;;;;;5.67;100.00;96618.63;5074622;28;20189;-91
2020/12/27 07:51:36;;;;;;;1.93;1.83;;;;;;;5.65;100.00;96633.59;5076674;28;20221;-91
2020/12/27 07:54:04;;;;;;;1.73;1.63;;;;;;;5.61;100.00;96633.00;5072236;28;20201;-91
2020/12/27 07:56:33;;;;;;;1.53;1.43;;;;;;;5.67;100.00;96642.94;5071260;28;20636;-88
2020/12/27 07:59:02;;;;;;;1.70;1.60;;;;;;;5.63;100.00;96641.50;5071675;28;20205;-89
2020/12/27 08:01:30;;;;;;;2.63;2.43;;;;;;;5.66;100.00;96650.88;5070451;27;20664;-89
2020/12/27 08:03:59;;;;;;;3.87;3.57;;;;;;;5.63;100.00;96664.97;5070867;28;20196;-88
2020/12/27 08:09:34;;;;;;;3.67;2.40;;;;;;;5.63;100.00;96632.88;5077899;28;20205;-91
2020/12/27 08:12:01;;;;;;;2.53;2.33;;;;;;;5.75;100.00;96639.75;5077325;28;20254;-91
2020/12/27 08:14:31;;;;;;;1.80;1.70;;;;;;;5.78;100.00;96649.09;5080604;28;20189;-91
2020/12/27 08:16:58;;;;;;;3.10;2.10;;;;;;;5.79;100.00;96661.19;5080499;28;20224;-87
2020/12/27 08:19:26;;;;;;;2.30;2.10;;;;;;;5.80;100.00;96652.41;5072653;28;20193;-88
2020/12/27 08:22:00;;;;;;;2.20;2.00;;;;;;;5.83;100.00;96637.34;5069190;28;20205;-87
2020/12/27 08:24:27;;;;;;;2.60;2.40;;;;;;;5.80;100.00;96632.38;5079701;28;20181;-87
2020/12/27 08:26:55;;;;;;;4.23;3.90;;;;;;;5.78;100.00;96649.91;5077501;28;20276;-87
2020/12/27 08:29:48;;;;;;;2.43;2.23;;;;;;;5.84;100.00;96644.22;5073766;28;20193;-87
2020/12/27 08:32:16;;;;;;;3.33;2.93;;;;;;;5.78;100.00;96649.91;5075406;28;20719;-87
2020/12/27 08:34:46;;;;;;;2.10;1.97;;;;;;;5.84;100.00;96657.25;5079486;28;20204;-85
2020/12/27 08:37:17;;;;;;;2.17;1.97;;;;;;;5.82;100.00;96640.94;5078328;28;20284;-88
2020/12/27 08:39:51;;;;;;;4.47;4.03;;;;;;;5.83;100.00;96636.53;5077697;28;20185;-88
2020/12/27 08:42:25;;;;;;;4.63;4.20;;;;;;;5.85;100.00;96642.44;5072021;28;20685;-88
2020/12/27 08:44:59;;;;;;;3.50;3.20;;;;;;;5.79;100.00;96637.72;5070151;28;20191;-88
2020/12/27 08:47:44;;;;;;;4.50;4.10;;;;;;;5.82;100.00;96629.63;5072779;28;20204;-89
2020/12/27 08:50:15;;;;;;;4.37;3.77;;;;;;;5.87;100.00;96612.69;5073903;28;20181;-90
2020/12/27 08:52:48;;;;;;;2.90;2.63;;;;;;;5.86;100.00;96605.81;5073707;28;20637;-89
2020/12/27 08:55:16;;;;;;;4.70;4.30;;;;;;;5.89;100.00;96617.81;5074356;28;20573;-90
2020/12/27 08:57:43;;;;;;;5.17;4.63;;;;;;;5.84;100.00;96617.31;5074440;28;20200;-91
2020/12/27 09:00:13;;;;;;;4.37;3.80;;;;;;;5.87;100.00;96599.63;5073873;27;20209;-91
2020/12/27 09:02:41;;;;;;;5.30;3.97;;;;;;;5.80;100.00;96615.91;5074951;28;20719;-91
2020/12/27 09:05:10;;;;;;;7.07;5.37;;;;;;;5.82;100.00;96603.56;5073707;28;20736;-90
2020/12/27 09:07:39;;;;;;;5.63;4.83;;;;;;;5.78;100.00;96612.56;5073923;27;20197;-89
2020/12/27 09:10:08;;;;;;;7.80;5.70;;;;;;;5.75;100.00;96613.66;5073443;27;20250;-89
2020/12/27 09:12:35;;;;;;;6.47;5.60;;;;;;;5.75;100.00;96615.41;5073444;27;20228;-90
2020/12/27 09:15:17;;;;;;;41.93;24.70;;;;;;;5.78;100.00;96605.56;5073634;27;20592;-90
2020/12/27 09:17:53;;;;;;;20.60;14.30;;;;;;;5.80;100.00;96606.28;5073596;28;20197;-91
2020/12/27 09:20:26;;;;;;;8.43;7.60;;;;;;;5.81;100.00;96602.72;5072978;28;20284;-88
2020/12/27 09:22:56;;;;;;;4.87;4.33;;;;;;;5.87;100.00;96602.25;5073499;28;20288;-87
2020/12/27 09:25:24;;;;;;;5.47;4.93;;;;;;;5.89;100.00;96608.19;5073356;28;20584;-89
2020/12/27 09:27:53;;;;;;;2.60;2.40;;;;;;;5.90;100.00;96612.44;5072833;28;20284;-87
2020/12/27 09:30:21;;;;;;;6.40;5.27;;;;;;;5.99;100.00;96604.88;5073677;27;20233;-89
2020/12/27 09:32:50;;;;;;;5.83;5.27;;;;;;;5.95;100.00;96588.63;5072501;28;20766;-90
2020/12/27 09:35:21;;;;;;;4.97;4.47;;;;;;;5.89;100.00;96574.28;5072680;28;20189;-85
2020/12/27 09:37:48;;;;;;;4.47;3.70;;;;;;;5.93;100.00;96570.50;5073021;27;20333;-89
2020/12/27 09:40:16;;;;;;;4.20;3.73;;;;;;;6.01;100.00;96561.22;5055214;27;20233;-88
2020/12/27 09:42:44;;;;;;;5.83;5.33;;;;;;;5.99;100.00;96560.50;5052906;27;20198;-89
2020/12/27 09:45:22;;;;;;;4.97;4.57;;;;;;;6.10;100.00;96574.38;5052698;27;20277;-89
2020/12/27 09:47:55;;;;;;;4.80;4.43;;;;;;;6.13;100.00;96576.72;5052987;28;20189;-88
2020/12/27 09:50:30;;;;;;;4.07;3.77;;;;;;;6.13;100.00;96565.44;5053305;28;20193;-90
2020/12/27 09:52:57;;;;;;;3.27;2.97;;;;;;;6.06;100.00;96548.63;5052777;28;20217;-90
2020/12/27 09:55:24;;;;;;;3.07;2.43;;;;;;;6.03;100.00;96559.34;5052581;28;20662;-89
2020/12/27 09:57:51;;;;;;;4.13;3.83;;;;;;;6.00;100.00;96554.34;5052071;27;20233;-90
2020/12/27 10:00:18;;;;;;;4.33;3.93;;;;;;;6.02;100.00;96548.03;5053284;27;20213;-90
2020/12/27 10:02:45;;;;;;;2.60;2.40;;;;;;;6.03;100.00;96546.28;5053706;27;20219;-89
2020/12/27 10:05:13;;;;;;;2.30;2.10;;;;;;;6.03;100.00;96548.91;5052767;27;20201;-89
2020/12/27 10:07:40;;;;;;;3.40;3.10;;;;;;;6.05;100.00;96531.31;5052446;28;20848;-88
2020/12/27 10:10:09;;;;;;;3.03;2.83;;;;;;;6.09;100.00;96535.34;5053295;27;20198;-92
2020/12/27 10:12:36;;;;;;;3.67;2.83;;;;;;;6.12;100.00;96532.47;5053691;27;20264;-89
2020/12/27 10:15:04;;;;;;;3.70;3.10;;;;;;;6.10;100.00;96544.84;5054469;27;20280;-92
2020/12/27 10:17:32;;;;;;;3.43;3.13;;;;;;;6.02;100.00;96536.78;5109614;27;20201;-91
2020/12/27 10:20:00;;;;;;;6.97;6.10;;;;;;;6.04;100.00;96543.53;5082699;27;20288;-92
2020/12/27 10:22:28;;;;;;;4.57;4.17;;;;;;;6.07;100.00;96529.44;5075712;27;20249;-90
2020/12/27 10:24:55;;;;;;;5.30;4.83;;;;;;;6.11;100.00;96533.44;5075920;27;20200;-90
2020/12/27 10:27:22;;;;;;;8.13;7.37;;;;;;;6.05;100.00;96539.16;5077564;27;20226;-89
2020/12/27 10:29:49;;;;;;;16.03;11.57;;;;;;;6.10;100.00;96545.66;5072231;28;20190;-90
2020/12/27 10:32:16;;;;;;;13.33;9.93;;;;;;;6.02;100.00;96545.44;5071047;28;20225;-93
2020/12/27 10:34:42;;;;;;;8.50;7.60;;;;;;;6.00;100.00;96526.47;5071706;28;20189;-91
2020/12/27 10:37:09;;;;;;;22.87;16.43;;;;;;;6.04;100.00;96520.06;5071489;28;20189;-89
2020/12/27 10:39:40;;;;;;;19.87;11.73;;;;;;;6.05;100.00;96513.06;5071316;28;20273;-90
2020/12/27 10:42:07;;;;;;;8.90;8.00;;;;;;;6.08;100.00;96512.81;5031073;28;20237;-92
2020/12/27 10:44:34;;;;;;;8.63;6.83;;;;;;;6.11;100.00;96507.34;5031139;28;20195;-89
2020/12/27 10:47:01;;;;;;;10.20;9.20;;;;;;;6.11;100.00;96502.94;5030999;28;20206;-90
2020/12/27 10:49:27;;;;;;;10.90;9.80;;;;;;;6.08;100.00;96504.97;5031831;28;20620;-91
2020/12/27 10:51:54;;;;;;;6.17;5.67;;;;;;;6.06;100.00;96486.84;5031536;28;20258;-91
2020/12/27 10:54:21;;;;;;;9.50;8.60;;;;;;;6.07;100.00;96490.28;5031669;28;20677;-92
2020/12/27 10:56:49;;;;;;;7.73;7.00;;;;;;;6.05;100.00;96492.19;5031625;28;20202;-94
2020/12/27 10:59:16;;;;;;;5.50;4.80;;;;;;;6.00;100.00;96486.53;5031800;28;20203;-93
2020/12/27 11:01:44;;;;;;;6.30;5.80;;;;;;;6.06;100.00;96492.06;5016919;28;20207;-88
2020/12/27 11:04:14;;;;;;;5.80;5.20;;;;;;;6.07;100.00;96495.50;5025193;28;20203;-93
2020/12/27 11:06:41;;;;;;;6.07;5.57;;;;;;;6.05;100.00;96494.78;5014381;28;20215;-91
2020/12/27 11:09:11;;;;;;;4.87;4.47;;;;;;;6.05;100.00;96479.13;5011595;28;20323;-93
2020/12/27 11:11:39;;;;;;;6.30;5.70;;;;;;;6.04;100.00;96469.66;5009497;28;20196;-92
2020/12/27 11:14:07;;;;;;;7.83;6.47;;;;;;;6.03;100.00;96465.41;5014540;28;20203;-92
2020/12/27 11:16:34;;;;;;;9.93;8.93;;;;;;;6.02;100.00;96459.34;5018274;28;20199;-93
2020/12/27 11:19:02;;;;;;;17.90;15.47;;;;;;;6.04;100.00;96465.25;5013377;28;20214;-91
2020/12/27 11:21:29;;;;;;;12.57;11.13;;;;;;;6.04;100.00;96451.41;5012150;28;20200;-90
2020/12/27 11:23:56;;;;;;;9.43;8.50;;;;;;;6.05;100.00;96448.66;5012249;28;20203;-92
2020/12/27 11:26:23;;;;;;;10.00;8.07;;;;;;;6.00;100.00;96444.78;5018628;28;20210;-92
2020/12/27 11:28:50;;;;;;;18.97;15.47;;;;;;;6.02;100.00;96442.84;5018598;28;20224;-91
2020/12/27 11:31:19;;;;;;;14.60;11.27;;;;;;;6.03;100.00;96440.13;5016924;28;20211;-92
2020/12/27 11:33:46;;;;;;;19.50;17.77;;;;;;;6.02;100.00;96435.03;5012897;28;20254;-91
2020/12/27 11:36:13;;;;;;;20.03;18.23;;;;;;;6.06;100.00;96434.66;5016085;28;20196;-92
2020/12/27 11:38:40;;;;;;;15.40;13.87;;;;;;;6.08;100.00;96434.53;5015000;28;20195;-95
2020/12/27 11:41:08;;;;;;;9.73;8.80;;;;;;;6.14;100.00;96440.06;5039646;27;20234;-93
2020/12/27 11:43:35;;;;;;;9.20;8.23;;;;;;;6.15;100.00;96438.28;5053432;27;20197;-93
2020/12/27 11:46:02;;;;;;;8.50;7.80;;;;;;;6.16;100.00;96438.13;5057250;27;20689;-92